createdAt,value
2019-03-12T00:01:07.115Z,1.00
2019-03-12T00:04:14.397Z,0.63
2019-03-12T00:07:22.191Z,0.83
2019-03-12T00:10:29.691Z,1.00
2019-03-12T00:13:37.291Z,0.77
2019-03-12T00:16:44.777Z,0.73
2019-03-12T00:19:52.208Z,0.63
2019-03-12T00:22:59.514Z,0.83
2019-03-12T00:26:07.001Z,0.60
2019-03-12T00:29:14.424Z,0.90
2019-03-12T00:32:21.638Z,1.00
2019-03-12T00:35:29.019Z,0.80
2019-03-12T00:38:36.953Z,1.00
2019-03-12T00:41:44.501Z,0.97
2019-03-12T00:44:51.890Z,0.80
2019-03-12T00:47:59.457Z,0.80
2019-03-12T00:51:06.917Z,1.40
2019-03-12T00:54:14.430Z,0.90
2019-03-12T00:57:21.604Z,0.80
2019-03-12T01:00:29.196Z,1.20
2019-03-12T01:03:36.481Z,0.80
2019-03-12T01:06:44.261Z,0.80
2019-03-12T01:09:52.248Z,0.70
2019-03-12T01:13:00.120Z,0.70
2019-03-12T01:16:08.501Z,0.77
2019-03-12T01:19:16.826Z,0.70
2019-03-12T01:22:24.486Z,0.93
2019-03-12T01:25:31.666Z,1.00
2019-03-12T01:28:39.234Z,0.87
2019-03-12T01:31:46.731Z,0.73
2019-03-12T01:34:54.434Z,0.83
2019-03-12T01:38:02.344Z,1.30
2019-03-12T01:41:09.754Z,1.20
2019-03-12T01:44:17.118Z,1.33
2019-03-12T01:47:25.242Z,1.00
2019-03-12T01:50:33.143Z,1.10
2019-03-12T01:53:40.425Z,1.37
2019-03-12T01:56:47.815Z,1.27
2019-03-12T01:59:55.007Z,1.03
2019-03-12T02:03:03.721Z,1.33
2019-03-12T02:06:11.136Z,1.03
2019-03-12T02:09:19.007Z,0.60
2019-03-12T02:12:26.856Z,1.00
2019-03-12T02:15:34.651Z,1.10
2019-03-12T02:18:42.383Z,1.60
2019-03-12T02:21:50.153Z,1.23
2019-03-12T02:24:57.878Z,1.70
2019-03-12T02:28:05.362Z,0.83
2019-03-12T02:31:12.779Z,1.07
2019-03-12T02:34:20.445Z,1.00
2019-03-12T02:37:27.838Z,1.10
2019-03-12T02:40:35.802Z,1.00
2019-03-12T02:43:42.995Z,0.87
2019-03-12T02:46:50.272Z,0.90
2019-03-12T02:49:57.869Z,1.07
2019-03-12T02:53:05.641Z,1.03
2019-03-12T02:56:13.023Z,1.10
2019-03-12T02:59:20.406Z,1.20
2019-03-12T03:02:28.218Z,1.00
2019-03-12T03:05:45.853Z,1.20
2019-03-12T03:08:53.254Z,1.10
2019-03-12T03:12:00.776Z,1.27
2019-03-12T03:15:13.337Z,1.00
2019-03-12T03:18:20.924Z,1.13
2019-03-12T03:21:28.286Z,0.80
2019-03-12T03:24:35.901Z,1.30
2019-03-12T03:27:43.405Z,1.13
2019-03-12T03:30:50.691Z,0.67
2019-03-12T03:33:58.031Z,1.30
2019-03-12T03:37:05.567Z,0.87
2019-03-12T03:40:18.263Z,1.00
2019-03-12T03:43:25.915Z,0.97
2019-03-12T03:46:33.616Z,0.87
2019-03-12T03:49:40.994Z,1.07
2019-03-12T03:52:48.608Z,0.83
2019-03-12T03:55:56.085Z,1.10
2019-03-12T03:59:03.578Z,1.10
2019-03-12T04:02:11.316Z,1.00
2019-03-12T04:05:19.169Z,1.37
2019-03-12T04:08:26.534Z,0.83
2019-03-12T04:11:33.817Z,1.07
2019-03-12T04:14:41.294Z,1.20
2019-03-12T04:17:49.123Z,0.80
2019-03-12T04:20:56.991Z,1.23
2019-03-12T04:24:04.275Z,1.10
2019-03-12T04:27:11.667Z,0.90
2019-03-12T04:30:19.178Z,0.70
2019-03-12T04:34:14.305Z,1.10
2019-03-12T04:37:22.133Z,1.07
2019-03-12T04:40:29.656Z,0.80
2019-03-12T04:43:38.031Z,1.50
2019-03-12T04:46:45.640Z,1.13
2019-03-12T04:49:53.648Z,0.90
2019-03-12T04:53:01.269Z,2.10
2019-03-12T04:56:09.345Z,1.13
2019-03-12T04:59:17.721Z,1.10
2019-03-12T05:02:25.633Z,1.20
2019-03-12T05:05:32.963Z,1.53
2019-03-12T05:08:40.238Z,1.20
2019-03-12T05:11:48.827Z,1.07
2019-03-12T05:14:56.843Z,1.67
2019-03-12T05:18:04.302Z,1.20
2019-03-12T05:21:11.614Z,1.37
2019-03-12T05:24:19.896Z,1.20
2019-03-12T05:27:27.487Z,1.43
2019-03-12T05:30:34.982Z,1.00
2019-03-12T05:33:42.416Z,1.17
2019-03-12T05:36:49.592Z,1.07
2019-03-12T05:39:57.565Z,1.70
2019-03-12T05:43:05.618Z,0.83
2019-03-12T05:46:13.688Z,0.93
2019-03-12T05:49:21.446Z,1.43
2019-03-12T05:52:29.416Z,1.10
2019-03-12T05:55:36.885Z,0.97
2019-03-12T05:58:44.277Z,1.33
2019-03-12T06:01:51.917Z,0.83
2019-03-12T06:04:59.578Z,1.17
2019-03-12T06:08:07.069Z,1.33
2019-03-12T06:11:15.083Z,0.97
2019-03-12T06:14:22.732Z,0.87
2019-03-12T06:17:30.232Z,0.93
2019-03-12T06:20:37.768Z,1.63
2019-03-12T06:23:45.242Z,0.87
2019-03-12T06:26:52.797Z,0.83
2019-03-12T06:30:00.469Z,1.23
2019-03-12T06:33:14.180Z,1.40
2019-03-12T06:36:38.704Z,0.97
2019-03-12T06:40:15.025Z,1.03
2019-03-12T06:43:56.955Z,0.90
2019-03-12T06:47:30.008Z,0.67
2019-03-12T06:50:55.619Z,1.10
2019-03-12T06:54:34.715Z,0.90
2019-03-12T06:58:18.493Z,0.60
2019-03-12T07:01:34.605Z,1.00
2019-03-12T07:04:50.502Z,1.00
2019-03-12T07:08:22.045Z,1.20
2019-03-12T07:11:47.701Z,1.00
2019-03-12T07:15:17.748Z,1.43
2019-03-12T07:18:32.351Z,1.07
2019-03-12T07:21:57.244Z,0.87
2019-03-12T07:25:14.782Z,1.10
2019-03-12T07:28:29.053Z,1.63
2019-03-12T07:32:11.519Z,1.20
2019-03-12T07:35:28.903Z,0.90
2019-03-12T07:38:43.990Z,1.07
2019-03-12T07:42:19.827Z,0.80
2019-03-12T07:45:49.904Z,0.97
2019-03-12T07:49:19.692Z,1.03
2019-03-12T07:52:45.662Z,1.30
2019-03-12T07:56:00.567Z,1.10
2019-03-12T07:59:27.093Z,1.10
2019-03-12T08:02:57.151Z,0.93
2019-03-12T08:06:18.973Z,0.77
2019-03-12T08:09:46.456Z,1.23
2019-03-12T08:13:22.659Z,0.97
2019-03-12T08:16:49.183Z,1.23
2019-03-12T08:20:21.734Z,1.43
2019-03-12T08:23:44.584Z,1.37
2019-03-12T08:27:17.663Z,1.27
2019-03-12T08:30:44.102Z,1.33
2019-03-12T08:34:25.909Z,1.20
2019-03-12T08:38:11.471Z,0.97
2019-03-12T08:41:41.596Z,1.20
2019-03-12T08:44:59.067Z,1.40
2019-03-12T08:48:25.060Z,1.20
2019-03-12T08:51:58.405Z,0.90
2019-03-12T08:55:31.285Z,1.23
2019-03-12T08:58:51.982Z,0.90
2019-03-12T09:02:15.782Z,1.43
2019-03-12T09:05:29.613Z,1.10
2019-03-12T09:08:56.783Z,1.00
2019-03-12T09:12:13.971Z,0.87
2019-03-12T09:15:44.019Z,0.70
2019-03-12T09:19:17.366Z,0.77
2019-03-12T09:22:32.605Z,0.63
2019-03-12T09:25:58.565Z,0.80
2019-03-12T09:29:31.926Z,1.00
2019-03-12T09:32:55.311Z,0.50
2019-03-12T09:36:15.595Z,0.70
2019-03-12T09:39:33.431Z,0.80
2019-03-12T09:42:59.153Z,0.90
2019-03-12T09:46:35.876Z,0.70
2019-03-12T09:50:15.272Z,0.80
2019-03-12T09:53:28.603Z,0.60
2019-03-12T09:56:49.781Z,0.93
2019-03-12T10:00:17.335Z,0.70
2019-03-12T10:03:37.655Z,1.23
2019-03-12T10:06:52.963Z,0.70
2019-03-12T10:10:07.451Z,0.60
2019-03-12T10:13:34.782Z,0.73
2019-03-12T10:17:13.676Z,0.90
2019-03-12T10:20:46.584Z,0.67
2019-03-12T10:24:05.196Z,0.70
2019-03-12T10:27:30.972Z,0.70
2019-03-12T10:31:10.512Z,0.80
2019-03-12T10:34:40.795Z,0.50
2019-03-12T10:38:08.855Z,0.80
2019-03-12T10:41:26.992Z,0.77
2019-03-12T10:44:40.147Z,0.80
2019-03-12T10:47:48.131Z,0.70
2019-03-12T10:50:55.874Z,0.57
2019-03-12T10:54:03.732Z,0.63
2019-03-12T10:57:11.549Z,0.97
2019-03-12T11:00:19.150Z,0.50
2019-03-12T11:03:26.633Z,0.90
2019-03-12T11:06:34.435Z,0.50
2019-03-12T11:09:42.033Z,0.70
2019-03-12T11:12:49.529Z,0.60
2019-03-12T11:15:57.478Z,0.30
2019-03-12T11:19:05.014Z,0.50
2019-03-12T11:22:12.613Z,0.83
2019-03-12T11:25:27.059Z,0.70
2019-03-12T11:28:30.289Z,0.60
2019-03-12T11:31:37.787Z,0.57
2019-03-12T11:34:45.643Z,0.50
2019-03-12T11:37:53.697Z,0.60
2019-03-12T11:41:01.748Z,0.60
2019-03-12T11:44:09.685Z,0.53
2019-03-12T11:47:17.346Z,0.40
2019-03-12T11:50:25.879Z,0.63
2019-03-12T11:53:33.493Z,0.73
2019-03-12T11:56:41.337Z,0.50
2019-03-12T11:59:49.522Z,0.60
2019-03-12T12:03:00.438Z,0.37
2019-03-12T12:06:06.621Z,0.50
2019-03-12T12:09:14.113Z,0.47
2019-03-12T12:12:21.781Z,0.63
2019-03-12T12:15:29.895Z,0.50
2019-03-12T12:18:37.510Z,0.40
2019-03-12T12:21:45.604Z,0.50
2019-03-12T12:24:53.520Z,0.40
2019-03-12T12:28:01.524Z,0.27
2019-03-12T12:31:09.929Z,0.53
2019-03-12T12:34:17.755Z,0.47
2019-03-12T12:37:25.293Z,0.50
2019-03-12T12:40:33.253Z,0.30
2019-03-12T12:43:40.522Z,0.40
2019-03-12T12:46:47.808Z,0.40
2019-03-12T12:49:55.428Z,0.50
2019-03-12T12:53:03.238Z,0.50
2019-03-12T12:56:10.718Z,0.73
2019-03-12T12:59:18.285Z,0.40
2019-03-12T13:02:26.129Z,0.43
2019-03-12T13:05:33.824Z,0.60
2019-03-12T13:08:41.526Z,0.60
2019-03-12T13:11:50.144Z,0.40
2019-03-12T13:14:57.328Z,0.30
2019-03-12T13:18:04.599Z,0.40
2019-03-12T13:21:12.308Z,0.40
2019-03-12T13:24:19.618Z,0.40
2019-03-12T13:27:27.426Z,0.53
2019-03-12T13:30:34.937Z,0.20
2019-03-12T13:33:43.082Z,0.50
2019-03-12T13:36:50.466Z,0.37
2019-03-12T13:39:58.395Z,0.20
2019-03-12T13:43:06.650Z,0.30
2019-03-12T13:46:14.547Z,0.20
2019-03-12T13:49:22.524Z,0.30
2019-03-12T13:52:30.028Z,0.23
2019-03-12T13:55:37.415Z,0.20
2019-03-12T13:58:45.043Z,0.50
2019-03-12T14:01:52.854Z,0.20
2019-03-12T14:05:00.530Z,0.20
2019-03-12T14:08:08.166Z,0.13
2019-03-12T14:11:16.087Z,0.40
2019-03-12T14:14:23.797Z,0.23
2019-03-12T14:17:31.334Z,0.20
2019-03-12T14:20:41.563Z,0.10
2019-03-12T14:23:59.746Z,0.33
2019-03-12T14:27:07.977Z,0.20
2019-03-12T14:30:15.928Z,0.23
2019-03-12T14:33:23.924Z,0.20
2019-03-12T14:36:32.133Z,0.20
2019-03-12T14:39:40.400Z,0.20
2019-03-12T14:42:48.908Z,0.17
2019-03-12T14:45:56.665Z,0.30
2019-03-12T14:49:06.206Z,0.40
2019-03-12T14:52:44.445Z,0.10
2019-03-12T14:55:52.295Z,0.20
2019-03-12T14:59:00.526Z,0.20
2019-03-12T15:02:08.532Z,0.20
2019-03-12T15:05:16.657Z,0.20
2019-03-12T15:08:24.328Z,0.10
2019-03-12T15:11:32.469Z,0.10
2019-03-12T15:14:40.379Z,0.20
2019-03-12T15:17:49.322Z,0.23
2019-03-12T15:20:56.890Z,0.10
2019-03-12T15:24:04.581Z,0.13
2019-03-12T15:27:13.441Z,0.57
2019-03-12T15:30:21.262Z,0.10
2019-03-12T15:33:29.423Z,0.30
2019-03-12T15:36:37.672Z,0.10
2019-03-12T15:39:45.717Z,0.20
2019-03-12T15:42:53.816Z,0.13
2019-03-12T15:46:02.330Z,0.30
2019-03-12T15:49:10.439Z,0.50
2019-03-12T15:52:18.795Z,0.20
2019-03-12T15:55:26.936Z,0.10
2019-03-12T15:58:36.858Z,0.20
2019-03-12T16:01:44.568Z,0.40
2019-03-12T16:04:52.951Z,0.20
2019-03-12T16:08:01.219Z,0.20
2019-03-12T16:11:09.704Z,0.10
2019-03-12T16:14:17.355Z,0.20
2019-03-12T16:17:25.530Z,0.20
2019-03-12T16:20:34.146Z,0.40
2019-03-12T16:23:42.126Z,0.40
2019-03-12T16:26:50.116Z,0.30
2019-03-12T16:29:58.252Z,1.30
2019-03-12T16:33:05.930Z,1.40
2019-03-12T16:36:15.350Z,0.70
2019-03-12T16:39:24.446Z,0.30
2019-03-12T16:43:39.292Z,0.40
2019-03-12T16:46:56.308Z,0.50
2019-03-12T16:50:35.321Z,0.40
2019-03-12T16:53:44.209Z,0.43
2019-03-12T16:56:52.155Z,0.40
2019-03-12T17:00:00.578Z,0.60
2019-03-12T17:03:08.600Z,0.47
2019-03-12T17:06:17.270Z,0.40
2019-03-12T17:09:25.415Z,0.50
2019-03-12T17:12:33.176Z,0.80
2019-03-12T17:15:40.893Z,1.00
2019-03-12T17:18:50.747Z,2.00
2019-03-12T17:21:58.564Z,2.03
2019-03-12T17:25:06.814Z,1.30
2019-03-12T17:28:14.398Z,1.00
2019-03-12T17:31:22.701Z,1.30
2019-03-12T17:34:35.722Z,1.30
2019-03-12T17:37:41.455Z,1.07
2019-03-12T17:40:49.371Z,0.80
2019-03-12T17:43:58.018Z,0.50
2019-03-12T17:47:06.403Z,0.40
2019-03-12T17:50:14.409Z,0.27
2019-03-12T17:53:21.862Z,0.70
2019-03-12T17:56:29.970Z,0.90
2019-03-12T17:59:38.679Z,2.60
2019-03-12T18:02:46.715Z,1.80
2019-03-12T18:05:54.165Z,1.13
2019-03-12T18:09:01.758Z,0.97
2019-03-12T18:12:09.853Z,0.50
2019-03-12T18:15:19.584Z,1.07
2019-03-12T18:18:28.126Z,1.17
2019-03-12T18:21:36.597Z,1.00
2019-03-12T18:24:44.810Z,0.60
2019-03-12T18:27:57.614Z,0.80
2019-03-12T18:31:06.933Z,1.00
2019-03-12T18:34:15.477Z,0.80
2019-03-12T18:37:23.647Z,0.87
2019-03-12T18:40:32.319Z,1.00
2019-03-12T18:43:40.626Z,1.17
2019-03-12T18:46:48.862Z,1.00
2019-03-12T18:49:56.965Z,0.83
2019-03-12T18:53:04.634Z,0.60
2019-03-12T18:56:12.972Z,0.50
2019-03-12T18:59:21.064Z,0.33
2019-03-12T19:02:28.674Z,0.50
2019-03-12T19:05:36.563Z,0.47
2019-03-12T19:08:47.916Z,0.50
2019-03-12T19:11:54.809Z,0.70
2019-03-12T19:15:02.375Z,0.50
2019-03-12T19:18:10.688Z,0.70
2019-03-12T19:21:18.652Z,0.90
2019-03-12T19:24:26.558Z,1.20
2019-03-12T19:27:35.166Z,1.10
2019-03-12T19:30:43.507Z,1.70
2019-03-12T19:33:53.114Z,0.80
2019-03-12T19:37:01.405Z,3.30
2019-03-12T19:40:13.272Z,0.93
2019-03-12T19:43:21.361Z,0.60
2019-03-12T19:46:29.316Z,0.97
2019-03-12T19:49:37.561Z,0.87
2019-03-12T19:52:45.147Z,0.80
2019-03-12T19:55:53.471Z,0.90
2019-03-12T19:59:01.486Z,0.70
2019-03-12T20:02:16.051Z,0.50
2019-03-12T20:05:20.096Z,0.67
2019-03-12T20:08:28.477Z,0.80
2019-03-12T20:12:30.855Z,1.00
2019-03-12T20:16:41.608Z,0.80
2019-03-12T20:21:04.212Z,1.03
2019-03-12T20:25:31.165Z,0.83
2019-03-12T20:29:19.473Z,0.90
2019-03-12T20:33:33.124Z,0.73
2019-03-12T20:37:42.612Z,0.70
2019-03-12T20:42:08.821Z,0.50
2019-03-12T20:46:40.696Z,0.57
2019-03-12T20:50:52.421Z,0.67
2019-03-12T20:54:55.857Z,0.47
2019-03-12T20:58:54.911Z,0.90
2019-03-12T21:02:49.029Z,0.73
2019-03-12T21:06:38.809Z,0.80
2019-03-12T21:10:56.456Z,1.10
2019-03-12T21:14:57.070Z,0.60
2019-03-12T21:19:16.204Z,0.60
2019-03-12T21:23:05.095Z,0.57
2019-03-12T21:27:01.983Z,0.80
2019-03-12T21:30:11.328Z,0.50
2019-03-12T21:33:17.836Z,0.53
2019-03-12T21:36:25.955Z,0.70
2019-03-12T21:39:33.811Z,0.50
2019-03-12T21:42:41.589Z,0.63
2019-03-12T21:45:49.174Z,0.57
2019-03-12T21:48:56.813Z,0.50
2019-03-12T21:52:05.333Z,0.67
2019-03-12T21:55:13.236Z,0.90
2019-03-12T21:58:23.352Z,1.40
2019-03-12T22:01:30.543Z,0.90
2019-03-12T22:04:38.267Z,0.60
2019-03-12T22:07:46.557Z,0.87
2019-03-12T22:10:54.635Z,0.30
2019-03-12T22:14:02.685Z,0.30
2019-03-12T22:17:11.175Z,0.27
2019-03-12T22:20:19.011Z,0.20
2019-03-12T22:23:32.183Z,0.20
2019-03-12T22:26:40.323Z,0.30
2019-03-12T22:29:47.994Z,0.60
2019-03-12T22:32:55.640Z,0.30
2019-03-12T22:36:03.043Z,0.20
2019-03-12T22:39:10.598Z,0.20
2019-03-12T22:42:18.809Z,0.20
2019-03-12T22:45:26.541Z,0.20
2019-03-12T22:48:34.190Z,0.20
2019-03-12T22:51:41.606Z,0.30
2019-03-12T22:54:49.229Z,0.23
2019-03-12T22:57:56.796Z,0.30
2019-03-12T23:01:04.802Z,0.30
2019-03-12T23:04:12.400Z,0.20
2019-03-12T23:07:19.836Z,0.20
2019-03-12T23:10:28.401Z,0.23
2019-03-12T23:13:36.217Z,0.20
2019-03-12T23:16:44.024Z,0.23
2019-03-12T23:19:51.933Z,0.30
2019-03-12T23:22:59.574Z,0.17
2019-03-12T23:26:06.974Z,0.30
2019-03-12T23:29:14.802Z,0.30
2019-03-12T23:32:22.726Z,0.30
2019-03-12T23:35:31.714Z,0.20
2019-03-12T23:38:40.745Z,0.57
2019-03-12T23:41:48.292Z,0.40
2019-03-12T23:44:55.675Z,0.40
2019-03-12T23:48:03.281Z,0.60
2019-03-12T23:51:10.766Z,0.40
2019-03-12T23:54:18.260Z,0.20
2019-03-12T23:57:25.927Z,0.30
